sensor_id;sensor_type;location;lat;lon;timestamp;P1;durP1;ratioP1;P2;durP2;ratioP2
26181;SDS011;13927;51.534;11.866;2023-05-09T00:00:01;11.07;;;9.98;;
26181;SDS011;13927;51.534;11.866;2023-05-09T00:02:30;10.68;;;9.52;;
26181;SDS011;13927;51.534;11.866;2023-05-09T00:04:58;12.38;;;10.30;;
26181;SDS011;13927;51.534;11.866;2023-05-09T00:07:27;11.20;;;9.88;;
26181;SDS011;13927;51.534;11.866;2023-05-09T00:09:53;11.18;;;9.90;;
26181;SDS011;13927;51.534;11.866;2023-05-09T00:12:19;11.68;;;10.00;;
26181;SDS011;13927;51.534;11.866;2023-05-09T00:14:45;12.25;;;9.40;;
26181;SDS011;13927;51.534;11.866;2023-05-09T00:17:15;11.70;;;9.65;;
26181;SDS011;13927;51.534;11.866;2023-05-09T00:19:46;14.57;;;11.10;;
26181;SDS011;13927;51.534;11.866;2023-05-09T00:22:13;11.77;;;10.10;;
26181;SDS011;13927;51.534;11.866;2023-05-09T00:24:40;13.23;;;11.07;;
26181;SDS011;13927;51.534;11.866;2023-05-09T00:27:06;13.90;;;11.02;;
26181;SDS011;13927;51.534;11.866;2023-05-09T00:29:32;12.77;;;10.63;;
26181;SDS011;13927;51.534;11.866;2023-05-09T00:31:58;12.85;;;10.70;;
26181;SDS011;13927;51.534;11.866;2023-05-09T00:34:23;11.93;;;10.60;;
26181;SDS011;13927;51.534;11.866;2023-05-09T00:36:49;11.95;;;10.07;;
26181;SDS011;13927;51.534;11.866;2023-05-09T00:39:15;13.25;;;10.38;;
26181;SDS011;13927;51.534;11.866;2023-05-09T00:41:41;15.15;;;10.43;;
26181;SDS011;13927;51.534;11.866;2023-05-09T00:44:06;11.70;;;10.18;;
26181;SDS011;13927;51.534;11.866;2023-05-09T00:46:32;11.43;;;10.02;;
26181;SDS011;13927;51.534;11.866;2023-05-09T00:48:58;12.48;;;10.40;;
26181;SDS011;13927;51.534;11.866;2023-05-09T00:51:24;13.45;;;9.88;;
26181;SDS011;13927;51.534;11.866;2023-05-09T00:53:49;13.73;;;10.80;;
26181;SDS011;13927;51.534;11.866;2023-05-09T00:56:15;12.25;;;10.63;;
26181;SDS011;13927;51.534;11.866;2023-05-09T00:58:41;13.15;;;11.52;;
26181;SDS011;13927;51.534;11.866;2023-05-09T01:01:07;16.08;;;12.70;;
26181;SDS011;13927;51.534;11.866;2023-05-09T01:03:33;13.00;;;11.63;;
26181;SDS011;13927;51.534;11.866;2023-05-09T01:06:10;13.10;;;11.20;;
26181;SDS011;13927;51.534;11.866;2023-05-09T01:12:25;13.13;;;11.35;;
26181;SDS011;13927;51.534;11.866;2023-05-09T01:20:56;14.38;;;11.52;;
26181;SDS011;13927;51.534;11.866;2023-05-09T01:23:41;13.85;;;12.35;;
26181;SDS011;13927;51.534;11.866;2023-05-09T01:26:42;16.63;;;13.85;;
26181;SDS011;13927;51.534;11.866;2023-05-09T01:31:58;16.23;;;13.02;;
26181;SDS011;13927;51.534;11.866;2023-05-09T01:34:34;16.35;;;12.80;;
26181;SDS011;13927;51.534;11.866;2023-05-09T01:37:02;14.85;;;13.27;;
26181;SDS011;13927;51.534;11.866;2023-05-09T01:39:29;16.60;;;13.65;;
26181;SDS011;13927;51.534;11.866;2023-05-09T01:41:59;16.60;;;14.05;;
26181;SDS011;13927;51.534;11.866;2023-05-09T01:44:31;15.75;;;13.30;;
26181;SDS011;13927;51.534;11.866;2023-05-09T01:47:02;15.88;;;13.02;;
26181;SDS011;13927;51.534;11.866;2023-05-09T01:49:31;16.45;;;13.45;;
26181;SDS011;13927;51.534;11.866;2023-05-09T01:52:01;15.93;;;13.32;;
26181;SDS011;13927;51.534;11.866;2023-05-09T01:54:31;16.30;;;12.60;;
26181;SDS011;13927;51.534;11.866;2023-05-09T01:56:58;16.77;;;13.18;;
26181;SDS011;13927;51.534;11.866;2023-05-09T01:59:25;15.38;;;12.57;;
26181;SDS011;13927;51.534;11.866;2023-05-09T02:01:52;15.45;;;12.95;;
26181;SDS011;13927;51.534;11.866;2023-05-09T02:04:19;16.52;;;13.73;;
26181;SDS011;13927;51.534;11.866;2023-05-09T02:06:46;16.42;;;12.52;;
26181;SDS011;13927;51.534;11.866;2023-05-09T02:09:15;14.70;;;12.57;;
26181;SDS011;13927;51.534;11.866;2023-05-09T02:11:45;16.40;;;12.52;;
26181;SDS011;13927;51.534;11.866;2023-05-09T02:14:11;15.30;;;12.90;;
26181;SDS011;13927;51.534;11.866;2023-05-09T02:16:38;14.50;;;12.50;;
26181;SDS011;13927;51.534;11.866;2023-05-09T02:19:04;16.20;;;12.00;;
26181;SDS011;13927;51.534;11.866;2023-05-09T02:21:30;14.50;;;12.68;;
26181;SDS011;13927;51.534;11.866;2023-05-09T02:23:56;15.48;;;11.98;;
26181;SDS011;13927;51.534;11.866;2023-05-09T02:26:22;13.65;;;11.05;;
26181;SDS011;13927;51.534;11.866;2023-05-09T02:28:49;14.23;;;12.20;;
26181;SDS011;13927;51.534;11.866;2023-05-09T02:31:16;14.02;;;12.43;;
26181;SDS011;13927;51.534;11.866;2023-05-09T02:33:44;15.05;;;11.85;;
26181;SDS011;13927;51.534;11.866;2023-05-09T02:36:12;16.23;;;13.57;;
26181;SDS011;13927;51.534;11.866;2023-05-09T02:38:39;15.00;;;12.38;;
26181;SDS011;13927;51.534;11.866;2023-05-09T02:41:05;18.15;;;14.55;;
26181;SDS011;13927;51.534;11.866;2023-05-09T02:43:31;16.42;;;12.60;;
26181;SDS011;13927;51.534;11.866;2023-05-09T02:45:57;17.80;;;13.30;;
26181;SDS011;13927;51.534;11.866;2023-05-09T02:48:23;14.90;;;12.88;;
26181;SDS011;13927;51.534;11.866;2023-05-09T02:50:48;16.50;;;13.38;;
26181;SDS011;13927;51.534;11.866;2023-05-09T02:53:14;16.85;;;13.07;;
26181;SDS011;13927;51.534;11.866;2023-05-09T02:55:40;17.27;;;12.98;;
26181;SDS011;13927;51.534;11.866;2023-05-09T02:58:06;16.95;;;13.32;;
26181;SDS011;13927;51.534;11.866;2023-05-09T03:00:32;15.35;;;13.57;;
26181;SDS011;13927;51.534;11.866;2023-05-09T03:02:58;15.63;;;13.02;;
26181;SDS011;13927;51.534;11.866;2023-05-09T03:05:24;16.08;;;12.98;;
26181;SDS011;13927;51.534;11.866;2023-05-09T03:07:50;18.23;;;13.05;;
26181;SDS011;13927;51.534;11.866;2023-05-09T03:10:16;13.98;;;11.52;;
26181;SDS011;13927;51.534;11.866;2023-05-09T03:12:42;15.00;;;12.55;;
26181;SDS011;13927;51.534;11.866;2023-05-09T03:15:08;15.73;;;12.15;;
26181;SDS011;13927;51.534;11.866;2023-05-09T03:17:33;15.32;;;12.80;;
26181;SDS011;13927;51.534;11.866;2023-05-09T03:19:59;15.18;;;12.32;;
26181;SDS011;13927;51.534;11.866;2023-05-09T03:22:25;15.30;;;12.25;;
26181;SDS011;13927;51.534;11.866;2023-05-09T03:24:51;15.63;;;12.52;;
26181;SDS011;13927;51.534;11.866;2023-05-09T03:27:17;16.05;;;13.43;;
26181;SDS011;13927;51.534;11.866;2023-05-09T03:29:43;14.45;;;12.48;;
26181;SDS011;13927;51.534;11.866;2023-05-09T03:32:09;17.55;;;13.65;;
26181;SDS011;13927;51.534;11.866;2023-05-09T03:34:34;15.82;;;12.77;;
26181;SDS011;13927;51.534;11.866;2023-05-09T03:37:00;14.07;;;11.57;;
26181;SDS011;13927;51.534;11.866;2023-05-09T03:39:26;16.95;;;12.38;;
26181;SDS011;13927;51.534;11.866;2023-05-09T03:41:51;14.68;;;12.05;;
26181;SDS011;13927;51.534;11.866;2023-05-09T03:44:17;18.38;;;13.05;;
26181;SDS011;13927;51.534;11.866;2023-05-09T03:46:43;15.77;;;12.50;;
26181;SDS011;13927;51.534;11.866;2023-05-09T03:49:09;16.02;;;12.77;;
26181;SDS011;13927;51.534;11.866;2023-05-09T03:51:34;16.45;;;12.65;;
26181;SDS011;13927;51.534;11.866;2023-05-09T03:54:00;17.02;;;12.70;;
26181;SDS011;13927;51.534;11.866;2023-05-09T03:56:26;15.48;;;12.77;;
26181;SDS011;13927;51.534;11.866;2023-05-09T03:58:52;15.05;;;12.90;;
26181;SDS011;13927;51.534;11.866;2023-05-09T04:01:17;15.23;;;12.30;;
26181;SDS011;13927;51.534;11.866;2023-05-09T04:03:43;13.68;;;11.93;;
26181;SDS011;13927;51.534;11.866;2023-05-09T04:06:09;13.93;;;12.15;;
26181;SDS011;13927;51.534;11.866;2023-05-09T04:08:34;17.20;;;13.00;;
26181;SDS011;13927;51.534;11.866;2023-05-09T04:11:00;16.50;;;12.90;;
26181;SDS011;13927;51.534;11.866;2023-05-09T04:13:26;14.93;;;12.30;;
26181;SDS011;13927;51.534;11.866;2023-05-09T04:15:53;15.18;;;12.18;;
26181;SDS011;13927;51.534;11.866;2023-05-09T04:18:19;15.10;;;13.32;;
26181;SDS011;13927;51.534;11.866;2023-05-09T04:20:45;17.05;;;12.77;;
26181;SDS011;13927;51.534;11.866;2023-05-09T04:23:11;18.33;;;12.25;;
26181;SDS011;13927;51.534;11.866;2023-05-09T04:25:36;14.10;;;12.38;;
26181;SDS011;13927;51.534;11.866;2023-05-09T04:28:02;16.83;;;12.60;;
26181;SDS011;13927;51.534;11.866;2023-05-09T04:30:28;15.38;;;12.60;;
26181;SDS011;13927;51.534;11.866;2023-05-09T04:32:54;16.30;;;12.50;;
26181;SDS011;13927;51.534;11.866;2023-05-09T04:35:20;16.20;;;12.75;;
26181;SDS011;13927;51.534;11.866;2023-05-09T04:37:46;13.52;;;11.77;;
26181;SDS011;13927;51.534;11.866;2023-05-09T04:40:12;16.75;;;12.65;;
26181;SDS011;13927;51.534;11.866;2023-05-09T04:42:39;17.25;;;11.98;;
26181;SDS011;13927;51.534;11.866;2023-05-09T04:45:05;16.17;;;11.65;;
26181;SDS011;13927;51.534;11.866;2023-05-09T04:47:31;14.55;;;12.25;;
26181;SDS011;13927;51.534;11.866;2023-05-09T04:49:57;16.02;;;11.55;;
26181;SDS011;13927;51.534;11.866;2023-05-09T04:52:23;12.43;;;10.45;;
26181;SDS011;13927;51.534;11.866;2023-05-09T04:54:48;15.00;;;11.70;;
26181;SDS011;13927;51.534;11.866;2023-05-09T04:57:14;12.95;;;10.88;;
26181;SDS011;13927;51.534;11.866;2023-05-09T04:59:40;12.05;;;9.55;;
26181;SDS011;13927;51.534;11.866;2023-05-09T05:02:06;13.27;;;9.95;;
26181;SDS011;13927;51.534;11.866;2023-05-09T05:04:32;11.57;;;9.90;;
26181;SDS011;13927;51.534;11.866;2023-05-09T05:06:58;13.40;;;11.20;;
26181;SDS011;13927;51.534;11.866;2023-05-09T05:09:23;18.40;;;10.88;;
26181;SDS011;13927;51.534;11.866;2023-05-09T05:11:49;10.10;;;9.02;;
26181;SDS011;13927;51.534;11.866;2023-05-09T05:14:15;14.55;;;9.50;;
26181;SDS011;13927;51.534;11.866;2023-05-09T05:16:41;9.65;;;8.68;;
26181;SDS011;13927;51.534;11.866;2023-05-09T05:19:06;12.07;;;10.05;;
26181;SDS011;13927;51.534;11.866;2023-05-09T05:21:32;10.25;;;8.48;;
26181;SDS011;13927;51.534;11.866;2023-05-09T05:23:58;12.45;;;9.40;;
26181;SDS011;13927;51.534;11.866;2023-05-09T05:26:24;10.90;;;9.40;;
26181;SDS011;13927;51.534;11.866;2023-05-09T05:28:51;10.80;;;9.60;;
26181;SDS011;13927;51.534;11.866;2023-05-09T05:31:19;13.90;;;10.63;;
26181;SDS011;13927;51.534;11.866;2023-05-09T05:33:45;13.43;;;9.25;;
26181;SDS011;13927;51.534;11.866;2023-05-09T05:36:11;10.32;;;9.30;;
26181;SDS011;13927;51.534;11.866;2023-05-09T05:38:38;11.15;;;9.13;;
26181;SDS011;13927;51.534;11.866;2023-05-09T05:41:04;11.90;;;8.18;;
26181;SDS011;13927;51.534;11.866;2023-05-09T05:43:31;10.32;;;8.82;;
26181;SDS011;13927;51.534;11.866;2023-05-09T05:45:57;10.15;;;8.60;;
26181;SDS011;13927;51.534;11.866;2023-05-09T05:48:23;9.57;;;8.55;;
26181;SDS011;13927;51.534;11.866;2023-05-09T05:50:50;8.82;;;7.80;;
26181;SDS011;13927;51.534;11.866;2023-05-09T05:53:16;13.68;;;9.80;;
26181;SDS011;13927;51.534;11.866;2023-05-09T05:55:42;10.35;;;7.85;;
26181;SDS011;13927;51.534;11.866;2023-05-09T05:58:10;10.55;;;7.80;;
26181;SDS011;13927;51.534;11.866;2023-05-09T06:00:35;10.02;;;7.70;;
26181;SDS011;13927;51.534;11.866;2023-05-09T06:03:01;11.00;;;7.95;;
26181;SDS011;13927;51.534;11.866;2023-05-09T06:05:27;8.57;;;7.70;;
26181;SDS011;13927;51.534;11.866;2023-05-09T06:07:53;14.45;;;7.93;;
26181;SDS011;13927;51.534;11.866;2023-05-09T06:10:19;12.15;;;7.50;;
26181;SDS011;13927;51.534;11.866;2023-05-09T06:12:45;10.98;;;7.97;;
26181;SDS011;13927;51.534;11.866;2023-05-09T06:15:11;13.52;;;7.72;;
26181;SDS011;13927;51.534;11.866;2023-05-09T06:17:37;8.73;;;7.05;;
26181;SDS011;13927;51.534;11.866;2023-05-09T06:20:03;9.95;;;7.22;;
26181;SDS011;13927;51.534;11.866;2023-05-09T06:22:30;9.30;;;7.05;;
26181;SDS011;13927;51.534;11.866;2023-05-09T06:24:56;8.05;;;6.30;;
26181;SDS011;13927;51.534;11.866;2023-05-09T06:27:22;10.05;;;6.85;;
26181;SDS011;13927;51.534;11.866;2023-05-09T06:29:48;11.00;;;6.80;;
26181;SDS011;13927;51.534;11.866;2023-05-09T06:32:16;9.40;;;6.78;;
26181;SDS011;13927;51.534;11.866;2023-05-09T06:34:43;9.07;;;6.85;;
26181;SDS011;13927;51.534;11.866;2023-05-09T06:37:09;11.20;;;6.95;;
26181;SDS011;13927;51.534;11.866;2023-05-09T06:39:35;7.70;;;6.07;;
26181;SDS011;13927;51.534;11.866;2023-05-09T06:42:01;8.05;;;6.13;;
26181;SDS011;13927;51.534;11.866;2023-05-09T06:44:28;8.15;;;6.25;;
26181;SDS011;13927;51.534;11.866;2023-05-09T06:46:54;11.45;;;6.45;;
26181;SDS011;13927;51.534;11.866;2023-05-09T06:49:20;7.57;;;6.47;;
26181;SDS011;13927;51.534;11.866;2023-05-09T06:51:46;8.20;;;6.38;;
26181;SDS011;13927;51.534;11.866;2023-05-09T06:54:12;9.52;;;6.38;;
26181;SDS011;13927;51.534;11.866;2023-05-09T06:56:38;11.38;;;5.57;;
26181;SDS011;13927;51.534;11.866;2023-05-09T06:59:04;6.13;;;5.20;;
26181;SDS011;13927;51.534;11.866;2023-05-09T07:01:32;5.88;;;4.85;;
26181;SDS011;13927;51.534;11.866;2023-05-09T07:03:58;7.43;;;5.40;;
26181;SDS011;13927;51.534;11.866;2023-05-09T07:06:24;8.50;;;4.97;;
26181;SDS011;13927;51.534;11.866;2023-05-09T07:08:51;8.00;;;4.88;;
26181;SDS011;13927;51.534;11.866;2023-05-09T07:11:17;5.93;;;4.38;;
26181;SDS011;13927;51.534;11.866;2023-05-09T07:13:43;6.80;;;5.18;;
26181;SDS011;13927;51.534;11.866;2023-05-09T07:16:09;7.45;;;4.82;;
26181;SDS011;13927;51.534;11.866;2023-05-09T07:18:35;5.60;;;4.47;;
26181;SDS011;13927;51.534;11.866;2023-05-09T07:21:02;8.25;;;4.35;;
26181;SDS011;13927;51.534;11.866;2023-05-09T07:23:29;6.70;;;4.57;;
26181;SDS011;13927;51.534;11.866;2023-05-09T07:25:56;6.47;;;4.25;;
26181;SDS011;13927;51.534;11.866;2023-05-09T07:28:23;5.88;;;4.68;;
26181;SDS011;13927;51.534;11.866;2023-05-09T07:30:50;5.57;;;4.35;;
26181;SDS011;13927;51.534;11.866;2023-05-09T07:33:17;9.25;;;4.97;;
26181;SDS011;13927;51.534;11.866;2023-05-09T07:35:43;9.80;;;5.15;;
26181;SDS011;13927;51.534;11.866;2023-05-09T07:38:10;5.25;;;4.47;;
26181;SDS011;13927;51.534;11.866;2023-05-09T07:40:37;5.82;;;4.75;;
26181;SDS011;13927;51.534;11.866;2023-05-09T07:43:03;6.60;;;4.28;;
26181;SDS011;13927;51.534;11.866;2023-05-09T07:45:30;7.75;;;4.63;;
26181;SDS011;13927;51.534;11.866;2023-05-09T07:47:56;8.35;;;4.47;;
26181;SDS011;13927;51.534;11.866;2023-05-09T07:50:22;6.22;;;3.90;;
26181;SDS011;13927;51.534;11.866;2023-05-09T07:52:49;6.53;;;4.25;;
26181;SDS011;13927;51.534;11.866;2023-05-09T07:55:16;6.07;;;4.32;;
26181;SDS011;13927;51.534;11.866;2023-05-09T07:57:44;4.70;;;4.00;;
26181;SDS011;13927;51.534;11.866;2023-05-09T08:00:10;6.50;;;4.30;;
26181;SDS011;13927;51.534;11.866;2023-05-09T08:02:39;8.50;;;4.70;;
26181;SDS011;13927;51.534;11.866;2023-05-09T08:05:06;11.68;;;6.55;;
26181;SDS011;13927;51.534;11.866;2023-05-09T08:07:35;6.95;;;4.80;;
26181;SDS011;13927;51.534;11.866;2023-05-09T08:10:02;5.78;;;4.35;;
26181;SDS011;13927;51.534;11.866;2023-05-09T08:12:29;7.28;;;4.80;;
26181;SDS011;13927;51.534;11.866;2023-05-09T08:14:57;5.40;;;4.15;;
26181;SDS011;13927;51.534;11.866;2023-05-09T08:17:24;5.90;;;4.57;;
26181;SDS011;13927;51.534;11.866;2023-05-09T08:19:50;4.20;;;3.80;;
26181;SDS011;13927;51.534;11.866;2023-05-09T08:22:18;4.88;;;4.10;;
26181;SDS011;13927;51.534;11.866;2023-05-09T08:24:46;5.47;;;4.13;;
26181;SDS011;13927;51.534;11.866;2023-05-09T08:27:13;5.80;;;4.65;;
26181;SDS011;13927;51.534;11.866;2023-05-09T08:29:40;7.15;;;4.60;;
26181;SDS011;13927;51.534;11.866;2023-05-09T08:32:08;7.60;;;4.18;;
26181;SDS011;13927;51.534;11.866;2023-05-09T08:34:36;6.68;;;4.57;;
26181;SDS011;13927;51.534;11.866;2023-05-09T08:37:03;5.95;;;4.22;;
26181;SDS011;13927;51.534;11.866;2023-05-09T08:39:30;7.10;;;4.38;;
26181;SDS011;13927;51.534;11.866;2023-05-09T08:41:59;7.03;;;3.83;;
26181;SDS011;13927;51.534;11.866;2023-05-09T08:44:27;7.25;;;3.90;;
26181;SDS011;13927;51.534;11.866;2023-05-09T08:46:59;5.05;;;4.15;;
26181;SDS011;13927;51.534;11.866;2023-05-09T08:49:28;5.50;;;4.07;;
26181;SDS011;13927;51.534;11.866;2023-05-09T08:51:58;5.15;;;4.15;;
26181;SDS011;13927;51.534;11.866;2023-05-09T08:54:25;4.78;;;3.90;;
26181;SDS011;13927;51.534;11.866;2023-05-09T08:56:54;5.50;;;4.20;;
26181;SDS011;13927;51.534;11.866;2023-05-09T08:59:22;6.15;;;4.45;;
26181;SDS011;13927;51.534;11.866;2023-05-09T09:01:50;7.07;;;4.53;;
26181;SDS011;13927;51.534;11.866;2023-05-09T09:04:20;6.07;;;4.60;;
26181;SDS011;13927;51.534;11.866;2023-05-09T09:06:48;8.23;;;4.13;;
26181;SDS011;13927;51.534;11.866;2023-05-09T09:09:18;6.40;;;4.13;;
26181;SDS011;13927;51.534;11.866;2023-05-09T09:11:46;5.10;;;4.60;;
26181;SDS011;13927;51.534;11.866;2023-05-09T09:14:18;7.38;;;3.88;;
26181;SDS011;13927;51.534;11.866;2023-05-09T09:16:51;6.85;;;4.20;;
26181;SDS011;13927;51.534;11.866;2023-05-09T09:19:21;6.65;;;4.60;;
26181;SDS011;13927;51.534;11.866;2023-05-09T09:21:55;8.60;;;4.55;;
26181;SDS011;13927;51.534;11.866;2023-05-09T09:24:24;5.90;;;4.70;;
26181;SDS011;13927;51.534;11.866;2023-05-09T09:26:51;5.80;;;4.20;;
26181;SDS011;13927;51.534;11.866;2023-05-09T09:29:18;5.95;;;4.30;;
26181;SDS011;13927;51.534;11.866;2023-05-09T09:31:51;6.38;;;4.45;;
26181;SDS011;13927;51.534;11.866;2023-05-09T09:34:20;6.20;;;4.05;;
26181;SDS011;13927;51.534;11.866;2023-05-09T09:36:48;9.00;;;4.65;;
26181;SDS011;13927;51.534;11.866;2023-05-09T09:39:16;5.72;;;4.25;;
26181;SDS011;13927;51.534;11.866;2023-05-09T09:41:46;5.05;;;3.88;;
26181;SDS011;13927;51.534;11.866;2023-05-09T09:44:22;6.82;;;4.07;;
26181;SDS011;13927;51.534;11.866;2023-05-09T09:46:49;4.20;;;3.80;;
26181;SDS011;13927;51.534;11.866;2023-05-09T09:49:22;7.43;;;3.97;;
26181;SDS011;13927;51.534;11.866;2023-05-09T09:54:20;6.70;;;3.65;;
26181;SDS011;13927;51.534;11.866;2023-05-09T09:56:48;5.25;;;3.45;;
26181;SDS011;13927;51.534;11.866;2023-05-09T09:59:22;4.20;;;3.38;;
26181;SDS011;13927;51.534;11.866;2023-05-09T10:01:54;5.00;;;3.30;;
26181;SDS011;13927;51.534;11.866;2023-05-09T10:04:23;4.82;;;3.38;;
26181;SDS011;13927;51.534;11.866;2023-05-09T10:06:58;4.63;;;3.55;;
26181;SDS011;13927;51.534;11.866;2023-05-09T10:09:31;5.93;;;3.63;;
26181;SDS011;13927;51.534;11.866;2023-05-09T10:12:03;6.68;;;3.50;;
26181;SDS011;13927;51.534;11.866;2023-05-09T10:14:33;8.80;;;4.00;;
26181;SDS011;13927;51.534;11.866;2023-05-09T10:17:03;3.92;;;3.30;;
26181;SDS011;13927;51.534;11.866;2023-05-09T10:19:31;5.18;;;3.45;;
26181;SDS011;13927;51.534;11.866;2023-05-09T10:22:08;5.55;;;3.13;;
26181;SDS011;13927;51.534;11.866;2023-05-09T10:27:18;5.50;;;3.50;;
26181;SDS011;13927;51.534;11.866;2023-05-09T10:29:50;4.75;;;3.17;;
26181;SDS011;13927;51.534;11.866;2023-05-09T10:32:24;4.00;;;3.10;;
26181;SDS011;13927;51.534;11.866;2023-05-09T10:35:01;5.28;;;3.20;;
26181;SDS011;13927;51.534;11.866;2023-05-09T10:37:32;5.32;;;3.33;;
26181;SDS011;13927;51.534;11.866;2023-05-09T10:40:00;7.03;;;4.07;;
26181;SDS011;13927;51.534;11.866;2023-05-09T10:42:30;4.78;;;3.22;;
26181;SDS011;13927;51.534;11.866;2023-05-09T10:44:58;3.95;;;3.55;;
26181;SDS011;13927;51.534;11.866;2023-05-09T10:47:24;5.13;;;3.50;;
26181;SDS011;13927;51.534;11.866;2023-05-09T10:49:53;7.00;;;4.15;;
26181;SDS011;13927;51.534;11.866;2023-05-09T10:52:21;5.28;;;3.53;;
26181;SDS011;13927;51.534;11.866;2023-05-09T10:55:02;4.90;;;3.53;;
26181;SDS011;13927;51.534;11.866;2023-05-09T10:57:30;5.65;;;3.78;;
26181;SDS011;13927;51.534;11.866;2023-05-09T10:59:58;6.43;;;3.90;;
26181;SDS011;13927;51.534;11.866;2023-05-09T11:02:25;8.07;;;3.45;;
26181;SDS011;13927;51.534;11.866;2023-05-09T11:05:36;7.28;;;3.65;;
26181;SDS011;13927;51.534;11.866;2023-05-09T11:08:11;5.45;;;3.65;;
26181;SDS011;13927;51.534;11.866;2023-05-09T11:10:56;5.32;;;3.53;;
26181;SDS011;13927;51.534;11.866;2023-05-09T11:13:29;6.80;;;3.55;;
26181;SDS011;13927;51.534;11.866;2023-05-09T11:18:31;6.38;;;3.40;;
26181;SDS011;13927;51.534;11.866;2023-05-09T11:20:58;5.32;;;3.70;;
26181;SDS011;13927;51.534;11.866;2023-05-09T11:23:34;5.45;;;3.58;;
26181;SDS011;13927;51.534;11.866;2023-05-09T11:26:04;6.10;;;3.75;;
26181;SDS011;13927;51.534;11.866;2023-05-09T11:28:33;5.88;;;3.58;;
26181;SDS011;13927;51.534;11.866;2023-05-09T11:31:15;5.13;;;3.40;;
26181;SDS011;13927;51.534;11.866;2023-05-09T11:33:43;6.05;;;3.42;;
26181;SDS011;13927;51.534;11.866;2023-05-09T11:38:42;7.03;;;4.07;;
26181;SDS011;13927;51.534;11.866;2023-05-09T11:41:13;4.35;;;3.55;;
26181;SDS011;13927;51.534;11.866;2023-05-09T11:43:41;5.53;;;3.65;;
26181;SDS011;13927;51.534;11.866;2023-05-09T11:46:09;4.35;;;3.83;;
26181;SDS011;13927;51.534;11.866;2023-05-09T11:48:37;12.70;;;5.57;;
26181;SDS011;13927;51.534;11.866;2023-05-09T11:51:06;6.38;;;3.80;;
26181;SDS011;13927;51.534;11.866;2023-05-09T11:53:48;7.30;;;4.18;;
26181;SDS011;13927;51.534;11.866;2023-05-09T11:56:18;3.90;;;3.42;;
26181;SDS011;13927;51.534;11.866;2023-05-09T11:58:49;7.03;;;3.60;;
26181;SDS011;13927;51.534;11.866;2023-05-09T12:01:17;5.32;;;4.45;;
26181;SDS011;13927;51.534;11.866;2023-05-09T12:03:45;4.95;;;3.65;;
26181;SDS011;13927;51.534;11.866;2023-05-09T12:06:14;5.57;;;3.78;;
26181;SDS011;13927;51.534;11.866;2023-05-09T12:08:44;4.25;;;3.10;;
26181;SDS011;13927;51.534;11.866;2023-05-09T12:11:12;4.47;;;3.17;;
26181;SDS011;13927;51.534;11.866;2023-05-09T12:13:49;6.60;;;3.20;;
26181;SDS011;13927;51.534;11.866;2023-05-09T12:16:18;4.65;;;3.38;;
26181;SDS011;13927;51.534;11.866;2023-05-09T12:18:47;5.90;;;3.13;;
26181;SDS011;13927;51.534;11.866;2023-05-09T12:21:16;6.82;;;3.53;;
26181;SDS011;13927;51.534;11.866;2023-05-09T12:23:45;3.67;;;2.75;;
26181;SDS011;13927;51.534;11.866;2023-05-09T12:26:12;4.68;;;3.38;;
26181;SDS011;13927;51.534;11.866;2023-05-09T12:28:42;7.60;;;3.10;;
26181;SDS011;13927;51.534;11.866;2023-05-09T12:31:11;6.75;;;3.22;;
26181;SDS011;13927;51.534;11.866;2023-05-09T12:33:39;6.05;;;3.38;;
26181;SDS011;13927;51.534;11.866;2023-05-09T12:36:10;7.22;;;3.00;;
26181;SDS011;13927;51.534;11.866;2023-05-09T12:38:40;5.53;;;3.17;;
26181;SDS011;13927;51.534;11.866;2023-05-09T12:41:19;3.42;;;3.08;;
26181;SDS011;13927;51.534;11.866;2023-05-09T12:43:48;3.95;;;3.33;;
26181;SDS011;13927;51.534;11.866;2023-05-09T12:46:17;4.55;;;3.38;;
26181;SDS011;13927;51.534;11.866;2023-05-09T12:48:45;4.82;;;3.20;;
26181;SDS011;13927;51.534;11.866;2023-05-09T12:51:20;5.88;;;3.38;;
26181;SDS011;13927;51.534;11.866;2023-05-09T12:53:47;6.95;;;3.08;;
26181;SDS011;13927;51.534;11.866;2023-05-09T12:56:15;6.55;;;3.42;;
26181;SDS011;13927;51.534;11.866;2023-05-09T12:58:50;4.65;;;2.58;;
26181;SDS011;13927;51.534;11.866;2023-05-09T13:01:20;4.95;;;2.95;;
26181;SDS011;13927;51.534;11.866;2023-05-09T13:03:59;7.03;;;3.17;;
26181;SDS011;13927;51.534;11.866;2023-05-09T13:06:31;5.57;;;3.03;;
26181;SDS011;13927;51.534;11.866;2023-05-09T13:09:01;3.78;;;2.83;;
26181;SDS011;13927;51.534;11.866;2023-05-09T13:11:30;4.32;;;2.90;;
26181;SDS011;13927;51.534;11.866;2023-05-09T13:13:57;3.53;;;2.63;;
26181;SDS011;13927;51.534;11.866;2023-05-09T13:16:24;7.32;;;3.42;;
26181;SDS011;13927;51.534;11.866;2023-05-09T13:18:51;5.97;;;3.22;;
26181;SDS011;13927;51.534;11.866;2023-05-09T13:21:18;5.97;;;2.85;;
26181;SDS011;13927;51.534;11.866;2023-05-09T13:23:48;4.00;;;2.75;;
26181;SDS011;13927;51.534;11.866;2023-05-09T13:26:16;3.47;;;2.92;;
26181;SDS011;13927;51.534;11.866;2023-05-09T13:28:43;4.28;;;2.90;;
26181;SDS011;13927;51.534;11.866;2023-05-09T13:31:10;5.20;;;2.83;;
26181;SDS011;13927;51.534;11.866;2023-05-09T13:33:36;4.80;;;2.50;;
26181;SDS011;13927;51.534;11.866;2023-05-09T13:36:03;5.47;;;2.83;;
26181;SDS011;13927;51.534;11.866;2023-05-09T13:38:31;3.75;;;2.95;;
26181;SDS011;13927;51.534;11.866;2023-05-09T13:41:00;5.63;;;2.97;;
26181;SDS011;13927;51.534;11.866;2023-05-09T13:43:28;4.72;;;2.95;;
26181;SDS011;13927;51.534;11.866;2023-05-09T13:45:55;4.72;;;2.70;;
26181;SDS011;13927;51.534;11.866;2023-05-09T13:48:21;2.95;;;2.40;;
26181;SDS011;13927;51.534;11.866;2023-05-09T13:50:49;3.60;;;2.70;;
26181;SDS011;13927;51.534;11.866;2023-05-09T13:53:15;5.03;;;2.83;;
26181;SDS011;13927;51.534;11.866;2023-05-09T13:55:43;5.28;;;2.75;;
26181;SDS011;13927;51.534;11.866;2023-05-09T13:58:10;3.95;;;2.58;;
26181;SDS011;13927;51.534;11.866;2023-05-09T14:00:37;5.93;;;2.97;;
26181;SDS011;13927;51.534;11.866;2023-05-09T14:03:03;4.93;;;2.45;;
26181;SDS011;13927;51.534;11.866;2023-05-09T14:05:30;4.28;;;2.70;;
26181;SDS011;13927;51.534;11.866;2023-05-09T14:07:57;5.72;;;2.70;;
26181;SDS011;13927;51.534;11.866;2023-05-09T14:10:26;4.70;;;2.50;;
26181;SDS011;13927;51.534;11.866;2023-05-09T14:12:53;7.20;;;2.85;;
26181;SDS011;13927;51.534;11.866;2023-05-09T14:15:21;4.70;;;2.80;;
26181;SDS011;13927;51.534;11.866;2023-05-09T14:17:48;5.65;;;2.80;;
26181;SDS011;13927;51.534;11.866;2023-05-09T14:20:15;3.33;;;2.40;;
26181;SDS011;13927;51.534;11.866;2023-05-09T14:22:42;3.50;;;2.55;;
26181;SDS011;13927;51.534;11.866;2023-05-09T14:25:09;5.53;;;2.58;;
26181;SDS011;13927;51.534;11.866;2023-05-09T14:27:35;3.72;;;2.35;;
26181;SDS011;13927;51.534;11.866;2023-05-09T14:30:02;5.28;;;3.22;;
26181;SDS011;13927;51.534;11.866;2023-05-09T14:32:29;7.47;;;2.80;;
26181;SDS011;13927;51.534;11.866;2023-05-09T14:34:57;4.38;;;2.35;;
26181;SDS011;13927;51.534;11.866;2023-05-09T14:37:24;5.07;;;2.40;;
26181;SDS011;13927;51.534;11.866;2023-05-09T14:39:53;3.83;;;2.70;;
26181;SDS011;13927;51.534;11.866;2023-05-09T14:42:21;3.65;;;2.38;;
26181;SDS011;13927;51.534;11.866;2023-05-09T14:44:47;6.38;;;2.38;;
26181;SDS011;13927;51.534;11.866;2023-05-09T14:47:14;4.43;;;2.00;;
26181;SDS011;13927;51.534;11.866;2023-05-09T14:49:41;4.22;;;2.28;;
26181;SDS011;13927;51.534;11.866;2023-05-09T14:52:07;4.40;;;2.20;;